Time;durP1;ratioP1;P1;durP2;ratioP2;P2;SDS_P1;SDS_P2;PMS_P1;PMS_P2;Temp;Humidity;BMP_temperature;BMP_pressure;BME280_temperature;BME280_humidity;BME280_pressure;Samples;Min_cycle;Max_cycle;Signal;HPM_P1;HPM_P2
2020/12/04 00:00:20;;;;;;;8.85;6.75;;;5.40;90.90;;;;;;5027318;28;20022;-86
2020/12/04 00:02:46;;;;;;;9.35;6.93;;;5.50;90.90;;;;;;5049490;28;20037;-86
2020/12/04 00:05:12;;;;;;;9.32;6.57;;;5.40;90.80;;;;;;5031393;28;20102;-87
2020/12/04 00:07:38;;;;;;;8.93;6.95;;;5.40;90.80;;;;;;5030116;28;20363;-86
2020/12/04 00:10:04;;;;;;;9.60;7.10;;;5.40;90.80;;;;;;5021075;28;20479;-86
2020/12/04 00:12:32;;;;;;;9.02;7.28;;;5.40;90.70;;;;;;5029233;28;20036;-86
2020/12/04 00:15:03;;;;;;;9.85;7.55;;;5.40;90.70;;;;;;5020057;28;20022;-85
2020/12/04 00:17:29;;;;;;;8.45;6.50;;;5.40;90.70;;;;;;5037604;28;20387;-86
2020/12/04 00:20:00;;;;;;;9.50;6.47;;;5.40;90.70;;;;;;5017895;28;20014;-86
2020/12/04 00:22:26;;;;;;;10.00;7.00;;;5.40;90.70;;;;;;5019692;28;20025;-85
2020/12/04 00:24:52;;;;;;;9.05;6.65;;;5.40;90.70;;;;;;5024274;28;20026;-86
2020/12/04 00:27:20;;;;;;;10.23;6.63;;;5.40;90.60;;;;;;5022966;28;20113;-85
2020/12/04 00:29:49;;;;;;;9.60;7.07;;;5.40;90.60;;;;;;5029121;28;20060;-87
2020/12/04 00:32:17;;;;;;;9.80;6.88;;;5.40;90.50;;;;;;5028473;28;20022;-86
2020/12/04 00:34:43;;;;;;;9.57;7.00;;;5.40;90.60;;;;;;5014896;28;20558;-84
2020/12/04 00:37:19;;;;;;;9.23;6.47;;;5.40;90.50;;;;;;5030710;28;20017;-85
2020/12/04 00:39:45;;;;;;;8.15;6.05;;;5.40;90.60;;;;;;5031202;28;20030;-85
2020/12/04 00:42:11;;;;;;;8.88;6.40;;;5.40;90.60;;;;;;5025826;28;20041;-91
2020/12/04 00:44:43;;;;;;;8.50;6.53;;;5.40;90.50;;;;;;5026937;28;20116;-85
2020/12/04 00:47:11;;;;;;;8.25;6.00;;;5.50;90.50;;;;;;5022109;28;20407;-85
2020/12/04 00:49:44;;;;;;;8.50;6.22;;;5.40;90.50;;;;;;5023370;28;20497;-85
2020/12/04 00:52:25;;;;;;;8.35;6.43;;;5.50;90.50;;;;;;5018540;28;20053;-85
2020/12/04 00:55:00;;;;;;;;;;;;;;;;;;;;;
2020/12/04 00:57:27;;;;;;;7.80;6.32;;;5.40;90.50;;;;;;5035391;28;20378;-87
2020/12/04 00:59:52;;;;;;;8.20;6.32;;;5.40;90.50;;;;;;5033272;28;20112;-86
2020/12/04 01:02:21;;;;;;;8.23;6.18;;;5.40;90.40;;;;;;5018056;28;20124;-86
2020/12/04 01:04:50;;;;;;;10.57;6.88;;;5.40;90.40;;;;;;5032169;28;20048;-85
2020/12/04 01:07:18;;;;;;;8.90;6.53;;;5.40;90.40;;;;;;5018424;28;20022;-86
2020/12/04 01:10:02;;;;;;;;;;;;;;;;;;;;;
2020/12/04 01:12:28;;;;;;;11.57;6.65;;;5.40;90.40;;;;;;5033004;28;20052;-85
2020/12/04 01:14:56;;;;;;;8.23;6.40;;;5.40;90.40;;;;;;5057532;28;20120;-86
2020/12/04 01:17:27;;;;;;;8.60;6.07;;;5.40;90.40;;;;;;5033269;28;20390;-87
2020/12/04 01:19:55;;;;;;;10.23;6.95;;;5.40;90.40;;;;;;5015167;28;20056;-86
2020/12/04 01:22:26;;;;;;;9.68;6.50;;;5.40;90.40;;;;;;5034480;28;20036;-86
2020/12/04 01:24:55;;;;;;;8.43;7.00;;;5.40;90.40;;;;;;5029747;28;20080;-89
2020/12/04 01:27:23;;;;;;;9.15;6.63;;;5.40;90.40;;;;;;5014826;28;20022;-87
2020/12/04 01:29:59;;;;;;;8.70;6.35;;;5.40;90.30;;;;;;5022854;28;20026;-85
2020/12/04 01:32:28;;;;;;;8.50;6.10;;;5.40;90.30;;;;;;5031555;28;20517;-86
2020/12/04 01:34:57;;;;;;;8.55;6.60;;;5.40;90.30;;;;;;5020102;28;20022;-87
2020/12/04 01:37:26;;;;;;;8.85;6.10;;;5.40;90.30;;;;;;5034591;28;20026;-85
2020/12/04 01:39:54;;;;;;;9.50;6.93;;;5.40;90.30;;;;;;5020736;28;20029;-86
2020/12/04 01:42:20;;;;;;;8.45;6.35;;;5.40;90.30;;;;;;5032891;28;20025;-86
2020/12/04 01:44:58;;;;;;;9.15;6.95;;;5.40;90.30;;;;;;5031807;28;20025;-86
2020/12/04 01:47:24;;;;;;;8.75;6.22;;;5.40;90.30;;;;;;5018209;28;20033;-85
2020/12/04 01:49:54;;;;;;;8.70;6.15;;;5.40;90.20;;;;;;5031223;28;20056;-87
2020/12/04 01:52:35;;;;;;;9.18;6.50;;;5.30;90.20;;;;;;5027266;28;20470;-86
2020/12/04 01:55:04;;;;;;;7.82;5.82;;;5.40;90.30;;;;;;5020648;28;20050;-85
2020/12/04 01:57:34;;;;;;;7.72;5.55;;;5.40;90.30;;;;;;5043154;28;20025;-85
2020/12/04 02:00:00;;;;;;;7.72;6.25;;;5.40;90.30;;;;;;5031330;28;20026;-86
2020/12/04 02:02:26;;;;;;;8.32;5.70;;;5.40;90.40;;;;;;5033694;28;20116;-85
2020/12/04 02:05:01;;;;;;;7.57;5.75;;;5.40;90.40;;;;;;5022722;28;20133;-86
2020/12/04 02:07:45;;;;;;;8.38;5.75;;;5.40;90.40;;;;;;5015671;28;20073;-85
2020/12/04 02:10:33;;;;;;;7.43;5.72;;;5.40;90.50;;;;;;5028709;28;20029;-86
2020/12/04 02:13:02;;;;;;;6.63;5.28;;;5.40;90.40;;;;;;5047279;28;20424;-86
2020/12/04 02:15:38;;;;;;;9.18;6.80;;;5.40;90.50;;;;;;4998311;28;20022;-86
2020/12/04 02:18:05;;;;;;;7.47;5.72;;;5.40;90.50;;;;;;5024131;28;20022;-86
2020/12/04 02:20:34;;;;;;;7.97;6.13;;;5.40;90.50;;;;;;5018036;28;20037;-86
2020/12/04 02:23:00;;;;;;;7.50;5.07;;;5.40;90.50;;;;;;5015003;28;20492;-85
2020/12/04 02:25:33;;;;;;;8.80;6.18;;;5.40;90.60;;;;;;5027662;28;20085;-86
2020/12/04 02:27:59;;;;;;;8.48;6.32;;;5.40;90.60;;;;;;5018280;28;20029;-89
2020/12/04 02:30:35;;;;;;;6.40;5.28;;;5.40;90.50;;;;;;5026986;28;20481;-86
2020/12/04 02:33:03;;;;;;;6.80;5.45;;;5.40;90.60;;;;;;5028262;28;20029;-89
2020/12/04 02:35:34;;;;;;;6.55;5.10;;;5.40;90.60;;;;;;5020063;28;20175;-87
2020/12/04 02:38:18;;;;;;;7.35;4.95;;;5.40;90.60;;;;;;5014089;28;20054;-88
2020/12/04 02:40:43;;;;;;;7.30;5.10;;;5.40;90.60;;;;;;5024130;28;20115;-86
2020/12/04 02:43:09;;;;;;;6.93;4.90;;;5.40;90.70;;;;;;5014003;28;20188;-89
2020/12/04 02:45:35;;;;;;;6.30;4.85;;;5.40;90.70;;;;;;5031163;28;20025;-86
2020/12/04 02:48:04;;;;;;;5.97;4.82;;;5.40;90.70;;;;;;5028668;28;20037;-88
2020/12/04 02:50:32;;;;;;;6.53;4.90;;;5.40;90.70;;;;;;5034092;28;20975;-86
2020/12/04 02:53:09;;;;;;;7.13;4.90;;;5.40;90.70;;;;;;5016487;28;20041;-85
2020/12/04 02:55:35;;;;;;;6.88;4.85;;;5.40;90.70;;;;;;5013663;28;20049;-86
2020/12/04 02:58:08;;;;;;;6.72;4.85;;;5.40;90.80;;;;;;5029369;28;20022;-86
2020/12/04 03:00:37;;;;;;;7.45;4.95;;;5.40;90.80;;;;;;5011854;28;20036;-86
2020/12/04 03:03:05;;;;;;;6.03;4.50;;;5.40;90.80;;;;;;5045900;28;20061;-90
2020/12/04 03:05:31;;;;;;;7.32;5.03;;;5.40;90.80;;;;;;5009924;28;20450;-87
2020/12/04 03:07:56;;;;;;;6.25;4.72;;;5.30;90.80;;;;;;5033337;28;20036;-86
2020/12/04 03:10:24;;;;;;;7.03;5.30;;;5.40;90.80;;;;;;5016423;28;20138;-85
2020/12/04 03:12:50;;;;;;;5.80;4.70;;;5.40;90.80;;;;;;5033793;28;20545;-87
2020/12/04 03:15:18;;;;;;;6.70;4.97;;;5.40;90.80;;;;;;5027785;28;20030;-88
2020/12/04 03:17:46;;;;;;;6.53;5.07;;;5.40;90.80;;;;;;5013779;28;20120;-86
2020/12/04 03:20:12;;;;;;;8.10;5.07;;;5.40;90.80;;;;;;5028357;28;20029;-86
2020/12/04 03:22:38;;;;;;;6.63;4.97;;;5.40;90.80;;;;;;5032856;28;20033;-87
2020/12/04 03:25:06;;;;;;;7.10;5.43;;;5.40;90.80;;;;;;5031251;28;20486;-87
2020/12/04 03:27:35;;;;;;;6.65;5.18;;;5.40;90.80;;;;;;5031192;28;20029;-87
2020/12/04 03:30:00;;;;;;;7.22;5.22;;;5.40;90.80;;;;;;5031733;28;20055;-87
2020/12/04 03:32:28;;;;;;;6.47;4.63;;;5.40;90.80;;;;;;5024477;28;20805;-85
2020/12/04 03:35:06;;;;;;;;;;;;;;;;;;;;;
2020/12/04 03:37:38;;;;;;;6.53;4.90;;;5.40;90.80;;;;;;5053995;28;20491;-85
2020/12/04 03:40:04;;;;;;;6.60;5.35;;;5.40;90.80;;;;;;5012285;28;20053;-86
2020/12/04 03:42:30;;;;;;;6.53;5.32;;;5.40;90.80;;;;;;5023830;28;20042;-86
2020/12/04 03:44:55;;;;;;;6.03;4.80;;;5.40;90.90;;;;;;5022536;28;20076;-86
2020/12/04 03:47:21;;;;;;;5.93;4.70;;;5.40;90.90;;;;;;5025880;28;20041;-86
2020/12/04 03:49:52;;;;;;;5.72;4.57;;;5.40;90.90;;;;;;5011797;28;20068;-86
2020/12/04 03:52:20;;;;;;;6.28;4.60;;;5.40;90.90;;;;;;5031828;28;20037;-85
2020/12/04 03:54:49;;;;;;;5.82;4.55;;;5.40;90.80;;;;;;5015219;28;20036;-87
2020/12/04 03:57:18;;;;;;;5.10;4.22;;;5.40;90.80;;;;;;5031986;28;20486;-86
2020/12/04 03:59:53;;;;;;;7.65;5.20;;;5.50;90.90;;;;;;5021514;28;20108;-86
2020/12/04 04:02:19;;;;;;;6.68;4.43;;;5.40;90.80;;;;;;5017133;28;20036;-86
2020/12/04 04:04:47;;;;;;;5.95;4.30;;;5.40;90.80;;;;;;5021178;28;20045;-85
2020/12/04 04:07:15;;;;;;;5.90;4.65;;;5.40;90.80;;;;;;5020705;28;20440;-85
2020/12/04 04:09:42;;;;;;;5.32;4.25;;;5.50;90.80;;;;;;5015931;28;20033;-84
2020/12/04 04:12:24;;;;;;;5.07;4.10;;;5.50;90.80;;;;;;5012456;28;20507;-86
2020/12/04 04:14:52;;;;;;;5.97;4.60;;;5.50;90.80;;;;;;5025606;28;20029;-86
2020/12/04 04:17:23;;;;;;;6.35;4.43;;;5.50;90.80;;;;;;5018335;28;20058;-86
2020/12/04 04:19:51;;;;;;;;;;;5.50;90.80;;;;;;5021371;28;20022;-86
2020/12/04 04:22:22;;;;;;;5.65;4.30;;;5.50;90.80;;;;;;5025254;28;19921;-87
2020/12/04 04:24:51;;;;;;;5.65;3.97;;;5.50;90.80;;;;;;5033782;28;20386;-86
2020/12/04 04:27:19;;;;;;;4.63;4.07;;;5.50;90.80;;;;;;5032773;28;20021;-86
2020/12/04 04:29:52;;;;;;;4.32;3.35;;;5.50;90.90;;;;;;5017273;28;20154;-85
2020/12/04 04:32:18;;;;;;;4.93;3.78;;;5.50;90.90;;;;;;5058038;28;20034;-87
2020/12/04 04:34:44;;;;;;;4.78;3.53;;;5.50;90.90;;;;;;5022315;28;20588;-85
2020/12/04 04:37:14;;;;;;;4.28;3.75;;;5.50;90.90;;;;;;5021415;28;20052;-85
2020/12/04 04:39:43;;;;;;;5.57;3.75;;;5.50;90.90;;;;;;5021849;28;20481;-86
2020/12/04 04:42:12;;;;;;;5.00;3.75;;;5.50;90.90;;;;;;5021753;28;20084;-86
2020/12/04 04:44:38;;;;;;;6.28;3.58;;;5.50;90.90;;;;;;5024161;28;20073;-86
2020/12/04 04:47:15;;;;;;;4.22;3.55;;;5.50;90.90;;;;;;5017715;28;20084;-86
2020/12/04 04:49:48;;;;;;;4.47;3.50;;;5.50;90.80;;;;;;5035678;28;20445;-85
2020/12/04 04:52:19;;;;;;;4.72;3.42;;;5.60;90.80;;;;;;5033784;28;20079;-86
2020/12/04 04:54:50;;;;;;;4.13;3.38;;;5.60;90.90;;;;;;5030575;28;20117;-85
2020/12/04 04:57:24;;;;;;;4.75;3.50;;;5.60;90.80;;;;;;5011001;28;20033;-85
2020/12/04 04:59:53;;;;;;;5.57;3.55;;;5.60;90.90;;;;;;5030594;28;20026;-87
2020/12/04 05:02:18;;;;;;;4.50;3.50;;;5.60;90.80;;;;;;5034752;28;20040;-85
2020/12/04 05:04:58;;;;;;;4.50;3.40;;;5.60;90.80;;;;;;5019430;28;20054;-85
2020/12/04 05:07:34;;;;;;;4.75;3.45;;;5.60;90.80;;;;;;5048158;28;20029;-86
2020/12/04 05:10:13;;;;;;;4.95;3.50;;;5.60;90.80;;;;;;5029196;28;20033;-86
2020/12/04 05:12:44;;;;;;;3.65;3.17;;;5.60;90.80;;;;;;5024560;28;20475;-86
2020/12/04 05:15:23;;;;;;;3.78;2.97;;;5.60;90.70;;;;;;5028204;28;20108;-90
2020/12/04 05:18:16;;;;;;;4.57;3.63;;;5.60;90.80;;;;;;5032254;28;20041;-85
2020/12/04 05:20:54;;;;;;;3.22;2.90;;;5.60;90.70;;;;;;5008715;28;20088;-86
2020/12/04 05:23:24;;;;;;;5.38;3.40;;;5.60;90.70;;;;;;5023379;28;20037;-85
2020/12/04 05:25:52;;;;;;;4.38;3.30;;;5.60;90.70;;;;;;5052533;28;20029;-86
2020/12/04 05:28:22;;;;;;;4.10;3.45;;;5.60;90.70;;;;;;5031302;28;20030;-87
2020/12/04 05:31:14;;;;;;;5.90;3.95;;;5.60;90.60;;;;;;5030559;28;20017;-86
2020/12/04 05:33:49;;;;;;;4.28;3.08;;;5.60;90.60;;;;;;5007055;28;20376;-86
2020/12/04 05:36:30;;;;;;;4.72;3.55;;;5.60;90.60;;;;;;5021547;28;20034;-86
2020/12/04 05:38:59;;;;;;;4.35;2.97;;;5.60;90.60;;;;;;5030192;28;20033;-86
2020/12/04 05:41:28;;;;;;;4.35;3.28;;;5.60;90.60;;;;;;5013683;28;20065;-86
2020/12/04 05:43:59;;;;;;;3.95;3.08;;;5.60;90.60;;;;;;5027641;28;20053;-87
2020/12/04 05:46:26;;;;;;;3.75;3.13;;;5.60;90.60;;;;;;5008430;28;20049;-87
2020/12/04 05:49:08;;;;;;;3.95;3.20;;;5.60;90.60;;;;;;5044021;28;20101;-88
2020/12/04 05:51:38;;;;;;;5.05;3.33;;;5.60;90.60;;;;;;5031358;28;20450;-86
2020/12/04 05:54:08;;;;;;;3.15;2.85;;;5.60;90.50;;;;;;5033249;28;20025;-86
2020/12/04 05:56:36;;;;;;;3.58;2.85;;;5.60;90.50;;;;;;5033737;28;20026;-86
2020/12/04 05:59:15;;;;;;;3.03;2.53;;;5.60;90.50;;;;;;5030940;28;20029;-88
2020/12/04 06:01:45;;;;;;;5.13;3.20;;;5.60;90.50;;;;;;5031547;28;20467;-89
2020/12/04 06:04:29;;;;;;;;;;;;;;;;;;;;;
2020/12/04 06:07:29;;;;;;;;;;;;;;;;;;;;;
2020/12/04 06:09:56;;;;;;;4.20;3.10;;;5.60;90.50;;;;;;5022592;28;20022;-86
2020/12/04 06:12:33;;;;;;;;;;;;;;;;;;;;;
2020/12/04 06:15:33;;;;;;;3.78;2.75;;;5.60;90.50;;;;;;5028945;28;20032;-87
2020/12/04 06:18:08;;;;;;;4.22;3.00;;;5.60;90.50;;;;;;5021376;28;20027;-86
2020/12/04 06:20:54;;;;;;;3.75;2.75;;;5.60;90.50;;;;;;5021135;28;20032;-85
2020/12/04 06:29:08;;;;;;;;;;;;;;;;;;;;;
2020/12/04 06:32:05;;;;;;;2.75;2.38;;;5.60;90.40;;;;;;5026650;28;20049;-86
2020/12/04 06:34:56;;;;;;;;;;;;;;;;;;;;;
2020/12/04 06:37:50;;;;;;;3.42;2.83;;;5.70;90.50;;;;;;5021280;28;20026;-87
2020/12/04 06:40:43;;;;;;;;;;;;;;;;;;;;;
2020/12/04 06:43:45;;;;;;;;;;;;;;;;;;;;;
2020/12/04 06:46:56;;;;;;;3.90;2.72;;;5.70;90.40;;;;;;5023816;28;20017;-86
2020/12/04 06:49:35;;;;;;;2.70;2.28;;;5.70;90.40;;;;;;5022779;28;20548;-86
2020/12/04 06:52:16;;;;;;;2.42;2.17;;;5.70;90.50;;;;;;5017385;28;20057;-86
2020/12/04 06:54:53;;;;;;;2.90;2.33;;;5.70;90.40;;;;;;5023102;28;20017;-88
2020/12/04 06:57:43;;;;;;;;;;;;;;;;;;;;;
2020/12/04 07:00:14;;;;;;;2.90;2.35;;;5.70;90.40;;;;;;5017972;28;20385;-87
2020/12/04 07:02:45;;;;;;;2.38;2.17;;;5.80;90.50;;;;;;5011880;28;20037;-87
2020/12/04 07:05:24;;;;;;;4.03;2.65;;;5.80;90.50;;;;;;5027054;28;20046;-86
2020/12/04 07:08:30;;;;;;;;;;;;;;;;;;;;;
2020/12/04 07:11:19;;;;;;;3.60;2.50;;;5.80;90.50;;;;;;5021818;28;20034;-87
2020/12/04 07:13:54;;;;;;;2.90;2.15;;;5.80;90.40;;;;;;5017643;28;20111;-87
2020/12/04 07:16:20;;;;;;;2.78;2.17;;;5.90;90.50;;;;;;5018280;28;20022;-86
2020/12/04 07:19:11;;;;;;;3.45;2.60;;;5.90;90.50;;;;;;5022232;28;20032;-86
2020/12/04 07:21:45;;;;;;;2.75;2.38;;;5.90;90.50;;;;;;5021996;28;20038;-86
2020/12/04 07:24:42;;;;;;;;;;;;;;;;;;;;;
2020/12/04 07:27:18;;;;;;;2.38;2.13;;;6.00;90.50;;;;;;5025989;28;20036;-87
2020/12/04 07:30:09;;;;;;;3.13;2.00;;;6.00;90.40;;;;;;5018180;28;20022;-86
2020/12/04 07:33:13;;;;;;;2.35;1.95;;;6.00;90.40;;;;;;4994947;28;20049;-86
2020/12/04 07:35:51;;;;;;;;;;;;;;;;;;;;;
2020/12/04 07:39:18;;;;;;;2.97;2.25;;;6.00;90.40;;;;;;5053628;28;20409;-86
2020/12/04 07:42:01;;;;;;;2.90;2.22;;;6.00;90.40;;;;;;4990166;28;20503;-86
2020/12/04 07:45:00;;;;;;;;;;;;;;;;;;;;;
2020/12/04 07:47:51;;;;;;;2.75;2.28;;;6.10;90.40;;;;;;5025217;28;20036;-87
2020/12/04 07:50:22;;;;;;;3.00;2.20;;;6.10;90.40;;;;;;5024612;28;20034;-87
2020/12/04 07:53:26;;;;;;;2.75;2.25;;;6.10;90.40;;;;;;5022681;28;20026;-85
2020/12/04 07:59:24;;;;;;;1.92;1.70;;;6.20;90.40;;;;;;5049221;28;20367;-85
2020/12/04 08:05:03;;;;;;;2.33;1.77;;;6.20;90.40;;;;;;5030602;28;20049;-85
2020/12/04 08:07:45;;;;;;;;;;;;;;;;;;;;;
2020/12/04 08:16:23;;;;;;;;;;;6.20;90.40;;;;;;5028616;28;20489;-85
2020/12/04 08:18:57;;;;;;;1.52;1.15;;;6.20;90.40;;;;;;5026792;28;20354;-85
2020/12/04 08:21:40;;;;;;;;;;;;;;;;;;;;;
2020/12/04 08:24:39;;;;;;;;;;;;;;;;;;;;;
2020/12/04 08:27:21;;;;;;;;;;;;;;;;;;;;;
2020/12/04 08:30:14;;;;;;;1.92;1.50;;;6.30;90.40;;;;;;5025393;28;20033;-84
2020/12/04 08:32:54;;;;;;;2.20;1.45;;;6.40;90.40;;;;;;5029160;28;20403;-83
2020/12/04 08:35:38;;;;;;;3.22;2.05;;;6.40;90.40;;;;;;5029765;28;20049;-86
2020/12/04 08:41:13;;;;;;;3.00;2.28;;;6.50;90.40;;;;;;5027758;28;20049;-86
2020/12/04 08:44:27;;;;;;;2.13;1.92;;;6.50;90.40;;;;;;5022997;28;20041;-85
2020/12/04 08:46:55;;;;;;;2.78;1.70;;;6.50;90.40;;;;;;5018864;28;20120;-84
2020/12/04 08:49:39;;;;;;;1.83;1.50;;;6.50;90.40;;;;;;5022368;28;20046;-84
2020/12/04 08:52:55;;;;;;;3.40;1.85;;;6.50;90.30;;;;;;5032421;28;20075;-84
2020/12/04 08:55:39;;;;;;;2.65;1.80;;;6.50;90.30;;;;;;5014789;28;20034;-85
2020/12/04 08:58:38;;;;;;;;;;;;;;;;;;;;;
2020/12/04 09:01:24;;;;;;;4.55;2.70;;;6.50;90.30;;;;;;5028231;28;20029;-84
2020/12/04 09:04:14;;;;;;;2.85;1.90;;;6.50;90.40;;;;;;5008854;28;20061;-85
2020/12/04 09:06:40;;;;;;;3.27;1.63;;;6.50;90.40;;;;;;5020424;28;20452;-84
2020/12/04 09:09:11;;;;;;;2.05;1.48;;;6.60;90.40;;;;;;5025473;28;20112;-85
2020/12/04 09:11:39;;;;;;;2.65;1.30;;;6.60;90.40;;;;;;5029466;28;20056;-86
2020/12/04 09:14:23;;;;;;;;;;;;;;;;;;;;;
2020/12/04 09:17:15;;;;;;;2.65;1.40;;;6.60;90.40;;;;;;5033104;28;20017;-87
2020/12/04 09:19:50;;;;;;;;;;;;;;;;;;;;;
2020/12/04 09:22:41;;;;;;;2.33;1.20;;;6.60;90.40;;;;;;5022914;28;20032;-88
2020/12/04 09:25:25;;;;;;;;;;;;;;;;;;;;;
2020/12/04 09:28:04;;;;;;;1.52;1.30;;;6.70;90.50;;;;;;5023126;28;20394;-86
2020/12/04 09:30:35;;;;;;;1.42;1.30;;;6.70;90.50;;;;;;5018078;28;20022;-84
2020/12/04 09:33:13;;;;;;;2.33;1.27;;;6.80;90.50;;;;;;5016744;28;20083;-85
2020/12/04 09:36:05;;;;;;;1.67;1.00;;;6.80;90.50;;;;;;5027792;28;20033;-86
2020/12/04 09:38:34;;;;;;;2.17;1.58;;;6.90;90.50;;;;;;5029257;28;20469;-85
2020/12/04 09:41:09;;;;;;;5.32;2.08;;;6.90;90.80;;;;;;5026678;28;20446;-86
2020/12/04 09:43:57;;;;;;;1.98;1.38;;;6.90;90.50;;;;;;5012354;28;20054;-85
2020/12/04 09:46:28;;;;;;;1.90;1.20;;;7.00;90.50;;;;;;5054412;28;20076;-84
2020/12/04 09:49:17;;;;;;;3.45;1.00;;;7.00;90.50;;;;;;5016051;28;20042;-86
2020/12/04 09:51:58;;;;;;;;;;;;;;;;;;;;;
2020/12/04 09:54:56;;;;;;;1.20;0.85;;;7.10;90.60;;;;;;5027902;28;20039;-85
2020/12/04 09:57:33;;;;;;;2.35;0.60;;;7.10;90.50;;;;;;4948003;28;20041;-87
2020/12/04 10:00:09;;;;;;;1.35;0.60;;;7.10;90.50;;;;;;5015518;28;20030;-86
2020/12/04 10:03:02;;;;;;;0.73;0.50;;;7.20;90.50;;;;;;5018353;28;20116;-86
2020/12/04 10:05:38;;;;;;;0.68;0.50;;;7.20;90.40;;;;;;5005946;28;20046;-85
2020/12/04 10:08:20;;;;;;;;;;;;;;;;;;;;;
2020/12/04 10:11:32;;;;;;;1.50;0.40;;;7.30;90.20;;;;;;5023330;28;20374;-86
2020/12/04 10:14:13;;;;;;;0.43;0.30;;;7.30;90.10;;;;;;5029470;28;20095;-85
2020/12/04 10:16:45;;;;;;;0.63;0.20;;;7.40;90.00;;;;;;5032481;28;20029;-86
2020/12/04 10:19:20;;;;;;;0.30;0.30;;;7.40;89.90;;;;;;5014516;28;20107;-85
2020/12/04 10:21:56;;;;;;;0.63;0.28;;;7.50;89.80;;;;;;5012649;28;20022;-87
2020/12/04 10:24:29;;;;;;;0.55;0.20;;;7.50;89.50;;;;;;5015334;28;20379;-85
2020/12/04 10:27:13;;;;;;;0.85;0.20;;;7.50;89.20;;;;;;5032292;28;20401;-88
2020/12/04 10:29:44;;;;;;;0.47;0.30;;;7.50;89.20;;;;;;5027514;28;20029;-86
2020/12/04 10:32:20;;;;;;;0.30;0.30;;;7.60;89.30;;;;;;5031482;28;20032;-86
2020/12/04 10:35:06;;;;;;;1.40;0.45;;;7.60;88.70;;;;;;5024149;28;20025;-85
2020/12/04 10:37:52;;;;;;;0.98;0.45;;;7.60;88.60;;;;;;5018579;28;20037;-86
2020/12/04 10:40:35;;;;;;;;;;;;;;;;;;;;;
2020/12/04 10:43:20;;;;;;;0.30;0.30;;;7.60;88.80;;;;;;5017909;28;20038;-86
2020/12/04 10:45:52;;;;;;;0.70;0.28;;;7.70;87.30;;;;;;5019786;28;20523;-86
2020/12/04 10:51:21;;;;;;;;;;;;;;;;;;;;;
2020/12/04 10:54:13;;;;;;;1.02;0.20;;;7.70;86.70;;;;;;5019212;28;20025;-90
2020/12/04 10:56:48;;;;;;;0.10;0.10;;;7.70;86.50;;;;;;5021397;28;20060;-86
2020/12/04 10:59:29;;;;;;;1.15;0.30;;;7.70;86.30;;;;;;5024106;28;20109;-85
2020/12/04 11:07:47;;;;;;;0.82;0.38;;;7.90;85.80;;;;;;5024421;28;20048;-86
2020/12/04 11:13:01;;;;;;;0.77;0.17;;;7.90;85.10;;;;;;5024940;28;20040;-86
2020/12/04 11:15:48;;;;;;;0.30;0.25;;;8.00;84.60;;;;;;5015460;28;20094;-85
2020/12/04 11:18:31;;;;;;;0.57;0.20;;;8.00;84.00;;;;;;5027673;28;20033;-87
2020/12/04 11:21:12;;;;;;;;;;;;;;;;;;;;;
2020/12/04 11:23:52;;;;;;;0.30;0.28;;;8.00;83.00;;;;;;5029887;28;20036;-86
2020/12/04 11:26:47;;;;;;;1.00;0.30;;;8.10;82.90;;;;;;5029178;28;20075;-86
2020/12/04 11:29:21;;;;;;;0.10;0.10;;;8.10;82.80;;;;;;5012630;28;20551;-87
2020/12/04 11:31:56;;;;;;;0.28;0.20;;;8.10;82.30;;;;;;5022031;28;20044;-86
2020/12/04 11:34:25;;;;;;;18.45;7.38;;;8.10;82.40;;;;;;5001011;28;20467;-85
2020/12/04 11:36:53;;;;;;;3.97;2.00;;;8.10;82.60;;;;;;5021155;28;20121;-89
2020/12/04 11:39:29;;;;;;;3.15;1.10;;;8.10;82.30;;;;;;5010046;28;20080;-84
2020/12/04 11:42:21;;;;;;;0.90;0.65;;;8.10;82.40;;;;;;5041385;28;20033;-86
2020/12/04 11:47:47;;;;;;;0.68;0.30;;;8.10;82.10;;;;;;5015430;28;20037;-85
2020/12/04 11:50:19;;;;;;;1.58;0.50;;;8.10;81.70;;;;;;5018514;28;20053;-86
2020/12/04 11:53:05;;;;;;;0.43;0.30;;;8.10;81.80;;;;;;5022318;28;20026;-86
2020/12/04 11:55:54;;;;;;;0.70;0.30;;;8.10;81.70;;;;;;4989868;28;20072;-89
2020/12/04 11:58:27;;;;;;;0.38;0.20;;;8.10;81.90;;;;;;4995302;28;20054;-86
2020/12/04 12:01:03;;;;;;;0.63;0.22;;;8.10;81.80;;;;;;5021551;28;20024;-87
2020/12/04 12:03:44;;;;;;;0.65;0.35;;;8.10;81.80;;;;;;5027472;28;20045;-85
2020/12/04 12:06:25;;;;;;;0.40;0.20;;;8.10;82.00;;;;;;5027052;28;20042;-85
2020/12/04 12:09:13;;;;;;;0.40;0.32;;;8.10;81.90;;;;;;5020398;28;20084;-85
2020/12/04 12:12:13;;;;;;;0.65;0.45;;;8.20;82.10;;;;;;5029143;28;20371;-85
2020/12/04 12:14:49;;;;;;;;;;;;;;;;;;;;;
2020/12/04 12:17:27;;;;;;;0.40;0.17;;;8.30;81.80;;;;;;5022344;28;20033;-85
2020/12/04 12:20:18;;;;;;;0.88;0.20;;;8.40;81.90;;;;;;5009911;28;20760;-85
2020/12/04 12:22:59;;;;;;;;;;;;;;;;;;;;;
2020/12/04 12:28:22;;;;;;;1.90;0.70;;;8.40;81.50;;;;;;5019318;28;20039;-87
2020/12/04 12:34:13;;;;;;;0.60;0.50;;;8.40;81.60;;;;;;5020772;28;20115;-86
2020/12/04 12:36:58;;;;;;;0.85;0.38;;;8.40;81.70;;;;;;5037081;28;20578;-87
2020/12/04 12:39:55;;;;;;;1.20;0.20;;;8.50;81.80;;;;;;5046433;28;20434;-86
2020/12/04 12:42:31;;;;;;;1.08;0.25;;;8.50;81.80;;;;;;5039235;28;20033;-85
2020/12/04 12:44:59;;;;;;;0.50;0.30;;;8.50;81.60;;;;;;5014231;28;20057;-85
2020/12/04 12:47:36;;;;;;;0.30;0.10;;;8.60;81.10;;;;;;5017306;28;20030;-86
2020/12/04 12:50:27;;;;;;;0.52;0.10;;;8.60;80.90;;;;;;5039527;28;20373;-90
2020/12/04 12:53:35;;;;;;;0.32;0.20;;;8.60;80.80;;;;;;5019409;28;20045;-87
2020/12/04 12:56:08;;;;;;;0.60;0.40;;;8.60;80.70;;;;;;5018721;28;20467;-86
2020/12/04 12:58:48;;;;;;;0.52;0.30;;;8.50;80.20;;;;;;5013392;28;20041;-86
2020/12/04 13:01:26;;;;;;;0.38;0.25;;;8.50;80.20;;;;;;5017858;28;20034;-86
2020/12/04 13:04:02;;;;;;;;;;;;;;;;;;;;;
2020/12/04 13:13:03;;;;;;;0.57;0.30;;;8.50;79.70;;;;;;5004587;28;20069;-86
2020/12/04 13:15:40;;;;;;;1.27;0.10;;;8.40;79.60;;;;;;5030513;28;20025;-85
2020/12/04 13:18:45;;;;;;;0.15;0.15;;;8.40;79.70;;;;;;5013755;28;20038;-87
2020/12/04 13:22:31;;;;;;;1.02;0.35;;;8.40;79.70;;;;;;5048359;28;20032;-87
2020/12/04 13:25:00;;;;;;;0.38;0.25;;;8.40;79.40;;;;;;5013613;28;20042;-87
2020/12/04 13:27:28;;;;;;;2.38;0.85;;;8.40;79.60;;;;;;5019871;28;20115;-87
2020/12/04 13:30:29;;;;;;;1.75;0.88;;;8.40;79.50;;;;;;5013719;28;20524;-87
2020/12/04 13:33:15;;;;;;;0.40;0.30;;;8.30;79.10;;;;;;5029378;28;20071;-87
2020/12/04 13:36:34;;;;;;;0.32;0.32;;;8.30;79.10;;;;;;5016223;28;20030;-88
2020/12/04 13:38:55;;;;;;;1.10;0.35;;;8.30;78.80;;;;;;5014497;28;20172;-88
2020/12/04 13:44:47;;;;;;;0.75;0.30;;;8.30;78.80;;;;;;5015295;28;20055;-87
2020/12/04 13:47:43;;;;;;;1.17;0.30;;;8.30;78.80;;;;;;5031976;28;20045;-86
2020/12/04 13:50:46;;;;;;;;;;;;;;;;;;;;;
2020/12/04 13:53:40;;;;;;;;;;;;;;;;;;;;;
2020/12/04 13:56:45;;;;;;;;;;;;;;;;;;;;;
2020/12/04 13:59:46;;;;;;;1.00;0.30;;;8.20;79.30;;;;;;5017074;28;20038;-88
2020/12/04 14:03:13;;;;;;;1.25;0.30;;;8.20;79.40;;;;;;5028837;28;20105;-89
2020/12/04 14:06:30;;;;;;;0.85;0.35;;;8.20;79.30;;;;;;4997475;28;20080;-87
2020/12/04 14:09:35;;;;;;;;;;;;;;;;;;;;;
2020/12/04 14:12:50;;;;;;;1.00;0.30;;;8.10;79.50;;;;;;5018970;28;20022;-89
2020/12/04 14:15:36;;;;;;;;;;;;;;;;;;;;;
2020/12/04 14:18:43;;;;;;;;;;;;;;;;;;;;;
2020/12/04 14:28:19;;;;;;;;;;;;;;;;;;;;;
2020/12/04 14:31:21;;;;;;;;;;;;;;;;;;;;;
2020/12/04 14:34:46;;;;;;;;;;;;;;;;;;;;;
2020/12/04 14:37:23;;;;;;;2.33;1.05;;;8.10;80.30;;;;;;5015870;28;20040;-88
2020/12/04 14:40:47;;;;;;;;;;;;;;;;;;;;;
2020/12/04 14:43:19;;;;;;;2.67;1.30;;;8.10;80.30;;;;;;5022564;28;20056;-87
2020/12/04 14:46:10;;;;;;;1.20;1.08;;;8.10;80.30;;;;;;5012656;28;20026;-88
2020/12/04 14:49:12;;;;;;;;;;;8.10;80.50;;;;;;5013331;28;20040;-87
2020/12/04 14:52:06;;;;;;;1.50;0.73;;;8.10;80.50;;;;;;5024721;28;19909;-88
2020/12/04 14:55:36;;;;;;;10.00;5.90;;;8.10;80.60;;;;;;5031395;28;20128;-87
2020/12/04 14:58:48;;;;;;;4.45;2.15;;;8.10;80.50;;;;;;5030928;28;20099;-87
2020/12/04 15:01:47;;;;;;;2.35;1.20;;;8.10;80.50;;;;;;5031897;28;20475;-89
2020/12/04 15:04:40;;;;;;;1.42;0.90;;;8.10;80.50;;;;;;5018305;28;20053;-88
2020/12/04 15:07:36;;;;;;;1.15;0.50;;;8.00;80.60;;;;;;5027166;28;20048;-91
2020/12/04 15:13:45;;;;;;;0.85;0.38;;;7.90;80.60;;;;;;5013379;28;20039;-87
2020/12/04 15:16:50;;;;;;;1.35;0.55;;;7.90;80.70;;;;;;5008945;28;20033;-86
2020/12/04 15:25:46;;;;;;;;;;;;;;;;;;;;;
2020/12/04 15:28:48;;;;;;;;;;;;;;;;;;;;;
2020/12/04 15:31:26;;;;;;;0.80;0.50;;;7.70;81.00;;;;;;5019507;28;20029;-87
2020/12/04 15:33:57;;;;;;;1.83;0.50;;;7.70;81.00;;;;;;5019869;28;20489;-88
2020/12/04 15:36:29;;;;;;;0.93;0.50;;;7.70;81.10;;;;;;5032045;28;20413;-87
2020/12/04 15:39:03;;;;;;;1.10;0.70;;;7.70;81.20;;;;;;5017183;28;20033;-86
2020/12/04 15:41:52;;;;;;;;;;;;;;;;;;;;;
2020/12/04 15:44:34;;;;;;;;;;;;;;;;;;;;;
2020/12/04 15:47:19;;;;;;;0.65;0.57;;;7.60;81.50;;;;;;5023048;28;20017;-86
2020/12/04 15:52:45;;;;;;;1.60;0.40;;;7.50;81.50;;;;;;5001160;28;20034;-86
2020/12/04 15:55:22;;;;;;;1.70;0.50;;;7.50;81.50;;;;;;4996384;28;20034;-86
2020/12/04 15:58:09;;;;;;;1.25;0.68;;;7.50;81.50;;;;;;5001538;28;20036;-88
2020/12/04 16:00:47;;;;;;;;;;;;;;;;;;;;;
2020/12/04 16:03:23;;;;;;;;;;;;;;;;;;;;;
2020/12/04 16:05:59;;;;;;;0.65;0.52;;;7.40;81.30;;;;;;5032315;28;20049;-87